Αρχική σελίδα
METAR-TAF:

METAR-TAF

Αεροδρόμια :

Μαλάμπο, Ισημερινή Γουινέα

γεωγραφικό πλάτος: 03-45-18N, γεωγραφικό μήκος: 08-42-31E, υψόμετρο: 23 μ

METAR: λείπει

Χρόνος: 15:35 (14:35 UTC)

Πρόγνωση Καιρού

Η αναφορά έγινε 3 ώρες και 35 λεπτά πριν, στις 11:00 UTC
Η πρόγνωση ισχύει από τις 14 στις 12 UTC έως τις 15 στις 18 UTC
Άνεμος 6 kt από ΝΔ
Ορατότητα 10 χλμ και άνω
Διάσπαρτα νέφη σε ύψος 1000 πόδια
Πιθανότητα 30% :
Προσωρινά
από 14 στις 12 UTC έως τις 14 στις 16 UTC
Ορατότητα: 4000 μ
Αρκετά νέφη σε ύψος 900 πόδια
Λίγα νέφη σε ύψος 1800 πόδια, Σωρειτομελανίτες.
καταιγίδα, Ασθενής βροχή
Προσωρινά
από 14 στις 18 UTC έως τις 14 στις 24 UTC
Διάσπαρτα νέφη σε ύψος 1000 πόδια
Λίγα νέφη σε ύψος 2000 πόδια, Σωρειτομελανίτες.
καταιγίδα,

TAF: FGSL 141100Z 1412/1518 22006KT 9999 SCT010 PROB30 TEMPO 1412/1416 4000 -TSRA BKN009 FEW018CB TEMPO 1418/1424 TS SCT010 FEW020CB

Μετεωρολογικές αναφορές και προγνώσεις για περισσότερα από 4000 αεροδρόμια (δελτία METAR και TAF).

Οι διαθέσιμοι σταθμοί απεικονίζονται στο χάρτη με κίτρινες και κόκκινες κουκκίδες.

Μετακινήστε το ποντίκι πάνω από τις κουκκίδες για να δείτε το όνομα του σταθμού.

Στη συνέχεια, κάντε κλικ για να δείτε τις μετεωρολογικές αναφορές και τις προγνώσεις καιρού.

Για να αλλάξετε το χάρτη: κάντε κλικ στα πράσινα κουμπιά με τον μαύρο σταυρό για να ζουμάρετε, στο πράσινο κουμπί με την παύλα για να αφαιρέσετε το ζουμ ή στα πράσινα βέλη για να αντιπαραβάλλετε χάρτες.


METAR-TAF: